createdAt,value
2023-02-25T00:00:50.349Z,9.13
2023-02-25T00:03:23.174Z,9.13
2023-02-25T00:05:56.174Z,6.30
2023-02-25T00:08:29.168Z,7.82
2023-02-25T00:11:05.820Z,10.30
2023-02-25T00:13:39.496Z,12.00
2023-02-25T00:16:14.612Z,12.25
2023-02-25T00:18:47.216Z,10.77
2023-02-25T00:21:20.103Z,11.73
2023-02-25T00:23:53.957Z,9.25
2023-02-25T00:26:29.736Z,10.40
2023-02-25T00:29:02.671Z,9.95
2023-02-25T00:31:35.730Z,10.23
2023-02-25T00:34:08.418Z,10.45
2023-02-25T00:36:41.840Z,9.20
2023-02-25T00:39:14.744Z,9.90
2023-02-25T00:41:47.718Z,7.97
2023-02-25T00:44:20.377Z,7.68
2023-02-25T00:46:53.271Z,6.75
2023-02-25T00:49:32.536Z,5.57
2023-02-25T00:52:05.767Z,5.47
2023-02-25T00:54:39.846Z,6.90
2023-02-25T00:57:12.724Z,6.13
2023-02-25T00:59:45.293Z,5.68
2023-02-25T01:02:19.135Z,4.90
2023-02-25T01:04:51.769Z,7.05
2023-02-25T01:07:24.867Z,7.95
2023-02-25T01:09:57.706Z,6.80
2023-02-25T01:12:30.839Z,8.68
2023-02-25T01:15:03.657Z,5.55
2023-02-25T01:17:36.553Z,5.38
2023-02-25T01:20:12.869Z,5.32
2023-02-25T01:22:45.936Z,4.32
2023-02-25T01:25:18.843Z,4.78
2023-02-25T01:27:58.190Z,4.72
2023-02-25T01:30:30.817Z,4.85
2023-02-25T01:33:03.719Z,5.43
2023-02-25T01:35:37.049Z,4.43
2023-02-25T01:38:11.109Z,4.65
2023-02-25T01:40:43.863Z,3.83
2023-02-25T01:43:19.181Z,3.80
2023-02-25T01:45:54.705Z,4.75
2023-02-25T01:48:29.576Z,3.78
2023-02-25T01:51:03.708Z,3.45
2023-02-25T01:53:44.656Z,4.35
2023-02-25T01:56:19.350Z,3.13
2023-02-25T01:58:53.490Z,3.92
2023-02-25T02:01:27.161Z,3.67
2023-02-25T02:04:04.304Z,3.38
2023-02-25T02:06:38.182Z,3.33
2023-02-25T02:09:15.397Z,3.35
2023-02-25T02:11:47.930Z,3.42
2023-02-25T02:14:22.252Z,2.83
2023-02-25T02:17:15.045Z,3.40
2023-02-25T02:19:51.378Z,3.22
2023-02-25T02:22:28.857Z,3.88
2023-02-25T02:25:02.824Z,3.30
2023-02-25T02:27:56.130Z,4.32
2023-02-25T02:30:43.480Z,3.85
2023-02-25T02:33:18.822Z,4.57
2023-02-25T02:35:58.722Z,3.70
2023-02-25T02:38:42.889Z,3.53
2023-02-25T02:41:28.480Z,4.35
2023-02-25T02:44:11.788Z,5.30
2023-02-25T02:46:51.360Z,4.68
2023-02-25T02:49:30.191Z,5.70
2023-02-25T02:52:08.816Z,4.40
2023-02-25T02:54:42.694Z,5.13
2023-02-25T02:57:16.214Z,5.80
2023-02-25T02:59:52.378Z,5.10
2023-02-25T03:02:34.316Z,3.75
2023-02-25T03:05:11.576Z,4.78
2023-02-25T03:07:47.094Z,4.93
2023-02-25T03:10:21.713Z,6.07
2023-02-25T03:12:55.372Z,4.53
2023-02-25T03:15:31.626Z,4.72
2023-02-25T03:18:13.220Z,3.33
2023-02-25T03:20:47.337Z,3.53
2023-02-25T03:23:22.532Z,2.78
2023-02-25T03:26:15.286Z,2.92
2023-02-25T03:28:48.378Z,2.35
2023-02-25T03:31:24.758Z,3.03
2023-02-25T03:34:07.619Z,2.83
2023-02-25T03:36:42.639Z,3.00
2023-02-25T03:39:20.008Z,4.55
2023-02-25T03:41:54.870Z,2.55
2023-02-25T03:44:39.775Z,2.45
2023-02-25T03:47:13.430Z,2.70
2023-02-25T03:49:56.920Z,2.05
2023-02-25T03:52:36.090Z,2.22
2023-02-25T03:55:18.043Z,2.17
2023-02-25T03:57:51.607Z,1.88
2023-02-25T04:00:35.263Z,2.20
2023-02-25T04:03:09.115Z,2.05
2023-02-25T04:05:42.352Z,2.22
2023-02-25T04:08:22.206Z,2.60
2023-02-25T04:10:57.596Z,2.22
2023-02-25T04:13:30.344Z,1.52
2023-02-25T04:16:04.023Z,1.85
2023-02-25T04:18:36.741Z,2.03
2023-02-25T04:21:26.571Z,2.22
2023-02-25T04:23:59.399Z,1.55
2023-02-25T04:26:32.629Z,2.38
2023-02-25T04:29:05.285Z,1.88
2023-02-25T04:31:38.831Z,1.90
2023-02-25T04:34:11.597Z,1.65
2023-02-25T04:36:44.868Z,1.73
2023-02-25T04:39:18.452Z,1.92
2023-02-25T04:41:51.367Z,1.63
2023-02-25T04:44:23.978Z,1.00
2023-02-25T04:46:57.478Z,1.15
2023-02-25T04:49:29.988Z,0.68
2023-02-25T04:52:02.962Z,1.40
2023-02-25T04:54:35.602Z,0.70
2023-02-25T04:57:08.598Z,0.60
2023-02-25T04:59:41.305Z,1.00
2023-02-25T05:02:14.364Z,0.70
2023-02-25T05:04:47.073Z,1.17
2023-02-25T05:07:20.039Z,1.33
2023-02-25T05:09:52.614Z,1.00
2023-02-25T05:12:25.577Z,1.67
2023-02-25T05:14:58.249Z,1.17
2023-02-25T05:17:32.104Z,1.27
2023-02-25T05:20:12.257Z,1.00
2023-02-25T05:22:45.248Z,0.98
2023-02-25T05:25:17.864Z,0.90
2023-02-25T05:27:50.839Z,1.08
2023-02-25T05:30:23.489Z,1.73
2023-02-25T05:32:56.438Z,1.10
2023-02-25T05:35:29.080Z,1.20
2023-02-25T05:38:02.228Z,1.50
2023-02-25T05:40:36.567Z,1.00
2023-02-25T05:43:09.504Z,1.50
2023-02-25T05:45:42.080Z,1.98
2023-02-25T05:48:15.074Z,1.80
2023-02-25T05:50:47.669Z,2.55
2023-02-25T05:53:20.752Z,2.75
2023-02-25T05:55:53.270Z,4.68
2023-02-25T05:58:26.187Z,3.40
2023-02-25T06:00:58.839Z,2.58
2023-02-25T06:03:31.809Z,3.30
2023-02-25T06:06:04.932Z,1.70
2023-02-25T06:08:39.228Z,8.18
2023-02-25T06:11:14.672Z,3.60
2023-02-25T06:13:48.414Z,2.85
2023-02-25T06:16:21.895Z,2.70
2023-02-25T06:18:55.662Z,4.22
2023-02-25T06:21:28.356Z,3.13
2023-02-25T06:24:04.188Z,3.13
2023-02-25T06:26:42.979Z,2.97
2023-02-25T06:29:15.859Z,2.25
2023-02-25T06:31:48.875Z,2.45
2023-02-25T06:34:21.998Z,1.77
2023-02-25T06:36:54.541Z,2.30
2023-02-25T06:39:27.711Z,2.03
2023-02-25T06:42:00.604Z,1.60
2023-02-25T06:44:33.600Z,1.58
2023-02-25T06:47:06.205Z,1.10
2023-02-25T06:49:39.212Z,1.35
2023-02-25T06:52:11.826Z,1.30
2023-02-25T06:54:44.801Z,1.38
2023-02-25T06:57:17.441Z,1.00
2023-02-25T06:59:50.429Z,1.48
2023-02-25T07:02:22.955Z,1.50
2023-02-25T07:04:56.944Z,1.75
2023-02-25T07:07:29.634Z,2.45
2023-02-25T07:10:02.584Z,2.25
2023-02-25T07:12:35.254Z,2.13
2023-02-25T07:15:08.670Z,2.63
2023-02-25T07:17:41.149Z,2.53
2023-02-25T07:20:14.313Z,1.92
2023-02-25T07:22:46.822Z,1.50
2023-02-25T07:25:19.883Z,1.10
2023-02-25T07:27:54.640Z,1.15
2023-02-25T07:30:27.664Z,2.03
2023-02-25T07:33:00.237Z,2.13
2023-02-25T07:35:34.439Z,1.42
2023-02-25T07:38:07.874Z,2.00
2023-02-25T07:40:43.369Z,1.38
2023-02-25T07:43:16.162Z,1.30
2023-02-25T07:45:52.228Z,1.20
2023-02-25T07:48:24.972Z,1.27
2023-02-25T07:51:04.287Z,1.20
2023-02-25T07:53:36.893Z,1.60
2023-02-25T07:56:10.000Z,1.48
2023-02-25T07:58:43.302Z,1.65
2023-02-25T08:01:23.942Z,1.23
2023-02-25T08:03:58.375Z,1.45
2023-02-25T08:06:31.337Z,1.85
2023-02-25T08:09:06.053Z,1.20
2023-02-25T08:11:39.854Z,1.40
2023-02-25T08:14:12.580Z,1.67
2023-02-25T08:16:45.723Z,1.83
2023-02-25T08:19:22.367Z,1.58
2023-02-25T08:21:56.791Z,1.90
2023-02-25T08:24:37.346Z,1.25
2023-02-25T08:27:10.600Z,1.45
2023-02-25T08:29:43.167Z,1.10
2023-02-25T08:32:17.388Z,1.50
2023-02-25T08:34:51.114Z,0.95
2023-02-25T08:37:26.059Z,1.17
2023-02-25T08:39:58.685Z,1.52
2023-02-25T08:42:32.197Z,1.40
2023-02-25T08:45:05.948Z,0.80
2023-02-25T08:47:38.950Z,1.13
2023-02-25T08:50:12.143Z,1.05
2023-02-25T08:52:45.226Z,0.75
2023-02-25T08:55:18.593Z,1.40
2023-02-25T08:57:52.636Z,0.70
2023-02-25T09:00:25.739Z,0.95
2023-02-25T09:02:58.747Z,1.20
2023-02-25T09:05:31.440Z,1.52
2023-02-25T09:08:05.208Z,0.95
2023-02-25T09:10:49.416Z,0.90
2023-02-25T09:13:23.285Z,1.38
2023-02-25T09:15:58.295Z,1.10
2023-02-25T09:18:32.441Z,1.63
2023-02-25T09:21:05.408Z,1.70
2023-02-25T09:23:38.384Z,0.80
2023-02-25T09:26:11.218Z,1.27
2023-02-25T09:28:44.201Z,0.80
2023-02-25T09:31:17.402Z,0.80
2023-02-25T09:33:50.515Z,1.00
2023-02-25T09:36:23.114Z,1.60
2023-02-25T09:38:57.838Z,0.70
2023-02-25T09:41:35.978Z,1.50
2023-02-25T09:44:14.690Z,2.35
2023-02-25T09:46:53.421Z,1.23
2023-02-25T09:49:29.555Z,1.10
2023-02-25T09:52:12.155Z,0.57
2023-02-25T09:54:47.114Z,1.25
2023-02-25T09:57:21.978Z,1.27
2023-02-25T09:59:55.305Z,1.45
2023-02-25T10:02:32.975Z,1.35
2023-02-25T10:05:07.498Z,1.58
2023-02-25T10:08:03.534Z,1.65
2023-02-25T10:10:49.871Z,1.60
2023-02-25T10:13:28.258Z,1.15
2023-02-25T10:16:24.855Z,1.77
2023-02-25T10:19:15.908Z,2.03
2023-02-25T10:21:57.725Z,1.77
2023-02-25T10:24:35.145Z,3.22
2023-02-25T10:27:28.401Z,1.60
2023-02-25T10:30:08.615Z,2.20
2023-02-25T10:32:42.380Z,1.60
2023-02-25T10:35:24.234Z,1.50
2023-02-25T10:37:57.406Z,1.10
2023-02-25T10:40:29.939Z,1.45
2023-02-25T10:43:10.632Z,2.28
2023-02-25T10:45:46.325Z,1.52
2023-02-25T10:48:21.820Z,5.57
2023-02-25T10:51:06.824Z,2.58
2023-02-25T10:53:41.086Z,8.07
2023-02-25T10:56:13.614Z,1.50
2023-02-25T10:58:59.262Z,1.40
2023-02-25T11:01:42.975Z,5.22
2023-02-25T11:04:18.689Z,14.43
2023-02-25T11:06:51.620Z,1.70
2023-02-25T11:09:29.668Z,0.80
2023-02-25T11:12:08.580Z,1.00
2023-02-25T11:14:41.611Z,1.02
2023-02-25T11:17:21.193Z,1.33
2023-02-25T11:20:00.101Z,1.15
2023-02-25T11:22:37.772Z,0.98
2023-02-25T11:25:18.465Z,1.00
2023-02-25T11:27:56.328Z,1.23
2023-02-25T11:30:34.284Z,1.08
2023-02-25T11:33:12.220Z,1.52
2023-02-25T11:35:45.594Z,1.30
2023-02-25T11:38:41.608Z,0.93
2023-02-25T11:41:20.914Z,1.10
2023-02-25T11:43:54.215Z,0.70
2023-02-25T11:46:31.361Z,1.13
2023-02-25T11:49:09.791Z,0.90
2023-02-25T11:51:52.566Z,1.25
2023-02-25T11:54:28.188Z,1.25
2023-02-25T11:57:09.547Z,1.00
2023-02-25T11:59:52.997Z,1.20
2023-02-25T12:02:28.928Z,1.05
2023-02-25T12:05:13.977Z,1.00
2023-02-25T12:08:12.512Z,2.10
2023-02-25T12:11:14.439Z,1.20
2023-02-25T12:14:05.915Z,2.20
2023-02-25T12:16:44.652Z,3.00
2023-02-25T12:19:37.507Z,2.80
2023-02-25T12:22:28.612Z,1.10
2023-02-25T12:25:04.629Z,0.93
2023-02-25T12:28:04.456Z,1.15
2023-02-25T12:30:46.697Z,1.30
2023-02-25T12:35:57.018Z,1.05
2023-02-25T12:38:48.138Z,1.10
2023-02-25T12:41:36.499Z,1.55
2023-02-25T12:44:09.188Z,1.10
2023-02-25T12:46:51.221Z,0.80
2023-02-25T12:49:43.244Z,1.17
2023-02-25T12:52:36.718Z,1.58
2023-02-25T12:55:27.839Z,1.42
2023-02-25T12:58:20.370Z,0.98
2023-02-25T13:01:11.418Z,1.10
2023-02-25T13:03:54.589Z,1.05
2023-02-25T13:06:42.969Z,1.00
2023-02-25T13:09:34.653Z,0.80
2023-02-25T13:12:14.533Z,1.02
2023-02-25T13:14:57.589Z,1.27
2023-02-25T13:17:37.500Z,1.02
2023-02-25T13:20:29.168Z,2.40
2023-02-25T13:23:21.433Z,1.48
2023-02-25T13:26:17.594Z,0.77
2023-02-25T13:29:09.018Z,0.73
2023-02-25T13:31:51.090Z,4.90
2023-02-25T13:34:39.158Z,1.10
2023-02-25T13:37:18.112Z,0.90
2023-02-25T13:39:58.745Z,2.03
2023-02-25T13:42:54.671Z,1.92
2023-02-25T13:45:46.236Z,1.33
2023-02-25T13:50:51.885Z,1.10
2023-02-25T13:53:46.932Z,1.23
2023-02-25T13:56:44.179Z,0.98
2023-02-25T13:59:16.998Z,1.38
2023-02-25T14:01:57.051Z,0.95
2023-02-25T14:04:30.429Z,1.30
2023-02-25T14:07:06.137Z,1.50
2023-02-25T14:09:51.345Z,0.93
2023-02-25T14:12:45.591Z,0.98
2023-02-25T14:15:31.427Z,0.70
2023-02-25T14:18:24.226Z,0.90
2023-02-25T14:21:06.915Z,1.55
2023-02-25T14:23:52.016Z,0.75
2023-02-25T14:26:28.080Z,1.52
2023-02-25T14:29:04.911Z,1.80
2023-02-25T14:31:38.417Z,1.40
2023-02-25T14:34:29.636Z,1.40
2023-02-25T14:39:41.924Z,1.50
2023-02-25T14:42:33.459Z,1.88
2023-02-25T14:45:09.121Z,4.75
2023-02-25T14:47:51.935Z,2.17
2023-02-25T14:50:27.799Z,2.38
2023-02-25T14:53:23.928Z,2.20
2023-02-25T14:56:09.599Z,1.60
2023-02-25T14:59:01.084Z,2.55
2023-02-25T15:01:44.666Z,2.60
2023-02-25T15:04:36.669Z,1.70
2023-02-25T15:07:12.082Z,1.55
2023-02-25T15:10:04.170Z,2.25
2023-02-25T15:12:45.737Z,2.38
2023-02-25T15:15:21.668Z,1.70
2023-02-25T15:18:12.910Z,2.10
2023-02-25T15:20:46.379Z,1.83
2023-02-25T15:23:20.138Z,2.13
2023-02-25T15:26:11.109Z,2.30
2023-02-25T15:28:45.328Z,1.67
2023-02-25T15:31:30.192Z,2.65
2023-02-25T15:34:28.558Z,2.47
2023-02-25T15:37:19.444Z,3.08
2023-02-25T15:39:54.793Z,2.50
2023-02-25T15:42:41.224Z,3.33
2023-02-25T15:45:29.532Z,1.45
2023-02-25T15:48:08.861Z,1.35
2023-02-25T15:50:46.750Z,1.70
2023-02-25T15:53:23.740Z,1.80
2023-02-25T15:56:05.020Z,1.70
2023-02-25T15:58:42.735Z,2.35
2023-02-25T16:01:25.284Z,3.03
2023-02-25T16:03:58.477Z,2.58
2023-02-25T16:06:41.771Z,3.22
2023-02-25T16:09:15.961Z,2.08
2023-02-25T16:11:56.833Z,3.00
2023-02-25T16:14:31.672Z,2.72
2023-02-25T16:17:30.532Z,2.70
2023-02-25T16:20:12.315Z,3.40
2023-02-25T16:22:46.121Z,2.78
2023-02-25T16:25:22.500Z,1.23
2023-02-25T16:28:01.754Z,4.47
2023-02-25T16:30:42.322Z,3.03
2023-02-25T16:33:21.699Z,4.70
2023-02-25T16:36:07.478Z,2.15
2023-02-25T16:38:47.217Z,3.80
2023-02-25T16:41:22.366Z,7.40
2023-02-25T16:43:59.961Z,4.45
2023-02-25T16:46:34.884Z,21.13
2023-02-25T16:49:19.779Z,5.55
2023-02-25T16:51:53.545Z,19.83
2023-02-25T16:54:29.471Z,12.23
2023-02-25T16:57:03.523Z,11.30
2023-02-25T16:59:37.162Z,16.95
2023-02-25T17:02:15.907Z,4.70
2023-02-25T17:04:49.635Z,7.35
2023-02-25T17:07:23.318Z,5.25
2023-02-25T17:10:01.118Z,6.53
2023-02-25T17:12:39.197Z,8.07
2023-02-25T17:15:17.018Z,7.07
2023-02-25T17:17:52.565Z,7.18
2023-02-25T17:20:27.899Z,4.55
2023-02-25T17:23:04.152Z,10.68
2023-02-25T17:25:40.838Z,6.93
2023-02-25T17:28:24.569Z,3.95
2023-02-25T17:31:08.815Z,2.63
2023-02-25T17:33:48.909Z,3.67
2023-02-25T17:36:24.249Z,3.63
2023-02-25T17:39:02.125Z,2.95
2023-02-25T17:41:35.538Z,4.10
2023-02-25T17:44:12.188Z,3.15
2023-02-25T17:46:44.943Z,7.20
2023-02-25T17:49:17.793Z,4.47
2023-02-25T17:51:54.538Z,3.92
2023-02-25T17:54:28.349Z,3.25
2023-02-25T17:57:02.396Z,3.28
2023-02-25T17:59:39.656Z,3.50
2023-02-25T18:02:21.264Z,3.08
2023-02-25T18:05:08.695Z,8.35
2023-02-25T18:07:43.076Z,4.30
2023-02-25T18:10:28.146Z,4.40
2023-02-25T18:13:02.169Z,4.43
2023-02-25T18:15:35.176Z,4.90
2023-02-25T18:18:08.003Z,3.33
2023-02-25T18:20:42.602Z,3.30
2023-02-25T18:23:15.710Z,3.08
2023-02-25T18:25:52.240Z,1.95
2023-02-25T18:28:24.825Z,5.25
2023-02-25T18:31:00.098Z,2.17
2023-02-25T18:33:32.759Z,2.97
2023-02-25T18:36:06.300Z,3.00
2023-02-25T18:38:38.841Z,3.78
2023-02-25T18:41:12.387Z,2.03
2023-02-25T18:43:45.454Z,2.33
2023-02-25T18:46:18.442Z,2.38
2023-02-25T18:48:51.187Z,3.50
2023-02-25T18:51:24.140Z,3.08
2023-02-25T18:53:56.802Z,2.78
2023-02-25T18:56:29.648Z,3.10
2023-02-25T18:59:02.333Z,2.85
2023-02-25T19:01:35.371Z,2.60
2023-02-25T19:04:08.052Z,2.50
2023-02-25T19:06:40.958Z,2.70
2023-02-25T19:09:13.631Z,2.88
2023-02-25T19:11:47.426Z,3.20
2023-02-25T19:14:20.619Z,3.00
2023-02-25T19:16:53.523Z,2.53
2023-02-25T19:19:27.459Z,2.97
2023-02-25T19:22:00.338Z,2.50
2023-02-25T19:24:32.915Z,2.78
2023-02-25T19:27:05.800Z,2.83
2023-02-25T19:29:39.050Z,2.58
2023-02-25T19:32:11.923Z,2.60
2023-02-25T19:34:45.144Z,3.40
2023-02-25T19:37:20.389Z,3.90
2023-02-25T19:39:52.919Z,3.97
2023-02-25T19:42:25.792Z,6.43
2023-02-25T19:44:59.490Z,3.97
2023-02-25T19:47:32.444Z,3.33
2023-02-25T19:50:06.514Z,3.45
2023-02-25T19:52:39.731Z,3.97
2023-02-25T19:55:13.397Z,3.53
2023-02-25T19:57:47.086Z,2.40
2023-02-25T20:00:20.724Z,4.10
2023-02-25T20:02:54.370Z,6.65
2023-02-25T20:05:27.431Z,4.18
2023-02-25T20:08:00.910Z,10.13
2023-02-25T20:10:33.451Z,3.10
2023-02-25T20:13:06.412Z,2.47
2023-02-25T20:15:39.145Z,2.83
2023-02-25T20:18:11.984Z,3.38
2023-02-25T20:20:44.636Z,3.75
2023-02-25T20:23:17.494Z,3.20
2023-02-25T20:25:50.133Z,5.88
2023-02-25T20:28:24.336Z,4.80
2023-02-25T20:31:04.177Z,3.75
2023-02-25T20:33:37.772Z,4.50
2023-02-25T20:36:25.275Z,3.97
2023-02-25T20:39:18.793Z,3.00
2023-02-25T20:41:51.365Z,4.45
2023-02-25T20:44:24.531Z,3.45
2023-02-25T20:46:57.172Z,4.75
2023-02-25T20:49:30.222Z,3.70
2023-02-25T20:52:02.898Z,4.63
2023-02-25T20:54:35.832Z,7.55
2023-02-25T20:57:09.976Z,4.85
2023-02-25T20:59:42.932Z,5.60
2023-02-25T21:02:16.112Z,6.13
2023-02-25T21:04:49.391Z,7.75
2023-02-25T21:07:22.076Z,8.98
2023-02-25T21:09:55.296Z,7.53
2023-02-25T21:12:27.880Z,5.15
2023-02-25T21:15:01.299Z,8.23
2023-02-25T21:17:33.862Z,8.10
2023-02-25T21:20:07.335Z,5.00
2023-02-25T21:22:40.038Z,9.43
2023-02-25T21:25:13.089Z,5.80
2023-02-25T21:27:45.758Z,6.93
2023-02-25T21:30:18.797Z,4.55
2023-02-25T21:32:51.579Z,8.50
2023-02-25T21:35:25.384Z,4.32
2023-02-25T21:37:57.978Z,3.72
2023-02-25T21:40:31.432Z,5.53
2023-02-25T21:43:03.996Z,3.75
2023-02-25T21:45:38.109Z,5.97
2023-02-25T21:48:10.580Z,4.07
2023-02-25T21:50:46.503Z,4.60
2023-02-25T21:53:19.412Z,7.15
2023-02-25T21:55:52.403Z,14.52
2023-02-25T21:58:24.960Z,5.55
2023-02-25T22:00:57.838Z,5.38
2023-02-25T22:03:32.760Z,3.40
2023-02-25T22:06:05.782Z,5.03
2023-02-25T22:08:39.817Z,6.88
2023-02-25T22:11:13.678Z,2.58
2023-02-25T22:13:47.505Z,2.38
2023-02-25T22:16:21.409Z,4.50
2023-02-25T22:18:54.157Z,4.18
2023-02-25T22:21:31.091Z,4.63
2023-02-25T22:24:04.611Z,2.53
2023-02-25T22:26:37.719Z,3.70
2023-02-25T22:29:10.373Z,2.03
2023-02-25T22:31:43.584Z,2.30
2023-02-25T22:34:16.251Z,2.20
2023-02-25T22:36:49.234Z,1.98
2023-02-25T22:39:22.005Z,2.33
2023-02-25T22:41:54.966Z,2.42
2023-02-25T22:44:27.667Z,2.47
2023-02-25T22:47:00.564Z,4.70
2023-02-25T22:49:33.282Z,3.00
2023-02-25T22:52:06.227Z,1.92
2023-02-25T22:54:38.873Z,2.50
2023-02-25T22:57:11.821Z,1.75
2023-02-25T22:59:44.514Z,1.73
2023-02-25T23:02:17.568Z,2.05
2023-02-25T23:04:50.258Z,2.17
2023-02-25T23:07:29.349Z,2.30
2023-02-25T23:10:06.235Z,1.50
2023-02-25T23:12:48.778Z,8.32
2023-02-25T23:15:25.990Z,5.03
2023-02-25T23:18:03.956Z,3.10
2023-02-25T23:20:37.583Z,2.72
2023-02-25T23:23:13.922Z,2.15
2023-02-25T23:25:59.301Z,2.85
2023-02-25T23:28:44.806Z,2.53
2023-02-25T23:31:21.198Z,2.47
2023-02-25T23:33:57.757Z,2.25
2023-02-25T23:36:30.636Z,2.50
2023-02-25T23:39:05.697Z,3.17
2023-02-25T23:41:38.911Z,2.67
2023-02-25T23:44:12.784Z,2.78
2023-02-25T23:46:45.366Z,2.30
2023-02-25T23:49:18.331Z,1.80
2023-02-25T23:51:50.965Z,2.28
2023-02-25T23:54:24.118Z,2.80
2023-02-25T23:56:56.784Z,3.30
2023-02-25T23:59:29.671Z,2.13
